sensor_id;sensor_type;location;lat;lon;timestamp;temperature;humidity
29813;DHT22;16707;48.106;11.548;2024-01-06T00:01:53;6.50;99.90
29813;DHT22;16707;48.106;11.548;2024-01-06T00:04:19;6.60;99.90
29813;DHT22;16707;48.106;11.548;2024-01-06T00:06:46;6.60;99.90
29813;DHT22;16707;48.106;11.548;2024-01-06T00:09:13;6.50;99.90
29813;DHT22;16707;48.106;11.548;2024-01-06T00:11:41;6.50;99.90
29813;DHT22;16707;48.106;11.548;2024-01-06T00:14:09;6.50;99.90
29813;DHT22;16707;48.106;11.548;2024-01-06T00:16:36;6.70;99.90
29813;DHT22;16707;48.106;11.548;2024-01-06T00:19:02;6.70;99.90
29813;DHT22;16707;48.106;11.548;2024-01-06T00:21:29;6.70;99.90
29813;DHT22;16707;48.106;11.548;2024-01-06T00:23:56;6.70;99.90
29813;DHT22;16707;48.106;11.548;2024-01-06T00:26:22;6.80;99.90
29813;DHT22;16707;48.106;11.548;2024-01-06T00:28:51;6.70;99.90
29813;DHT22;16707;48.106;11.548;2024-01-06T00:31:18;6.70;99.90
29813;DHT22;16707;48.106;11.548;2024-01-06T00:33:45;6.60;99.90
29813;DHT22;16707;48.106;11.548;2024-01-06T00:36:11;6.60;99.90
29813;DHT22;16707;48.106;11.548;2024-01-06T00:38:38;6.70;99.90
29813;DHT22;16707;48.106;11.548;2024-01-06T00:41:05;6.60;99.90
29813;DHT22;16707;48.106;11.548;2024-01-06T00:43:32;6.60;99.90
29813;DHT22;16707;48.106;11.548;2024-01-06T00:46:00;6.50;99.90
29813;DHT22;16707;48.106;11.548;2024-01-06T00:48:27;6.50;99.90
29813;DHT22;16707;48.106;11.548;2024-01-06T00:50:53;6.80;99.90
29813;DHT22;16707;48.106;11.548;2024-01-06T00:53:21;7.00;99.90
29813;DHT22;16707;48.106;11.548;2024-01-06T00:55:47;6.80;99.90
29813;DHT22;16707;48.106;11.548;2024-01-06T00:58:14;6.70;99.90
29813;DHT22;16707;48.106;11.548;2024-01-06T01:00:41;6.50;99.90
29813;DHT22;16707;48.106;11.548;2024-01-06T01:03:09;6.40;99.90
29813;DHT22;16707;48.106;11.548;2024-01-06T01:05:36;6.40;99.90
29813;DHT22;16707;48.106;11.548;2024-01-06T01:08:02;6.40;99.90
29813;DHT22;16707;48.106;11.548;2024-01-06T01:10:29;6.40;99.90
29813;DHT22;16707;48.106;11.548;2024-01-06T01:12:56;6.30;99.90
29813;DHT22;16707;48.106;11.548;2024-01-06T01:15:23;6.30;99.90
29813;DHT22;16707;48.106;11.548;2024-01-06T01:17:49;6.20;99.90
29813;DHT22;16707;48.106;11.548;2024-01-06T01:20:18;6.10;99.90
29813;DHT22;16707;48.106;11.548;2024-01-06T01:22:44;6.00;99.90
29813;DHT22;16707;48.106;11.548;2024-01-06T01:25:11;6.00;99.90
29813;DHT22;16707;48.106;11.548;2024-01-06T01:27:38;6.00;99.90
29813;DHT22;16707;48.106;11.548;2024-01-06T01:30:05;6.10;99.90
29813;DHT22;16707;48.106;11.548;2024-01-06T01:32:32;6.20;99.90
29813;DHT22;16707;48.106;11.548;2024-01-06T01:34:59;6.20;99.90
29813;DHT22;16707;48.106;11.548;2024-01-06T01:37:27;6.20;99.90
29813;DHT22;16707;48.106;11.548;2024-01-06T01:39:54;6.20;99.90
29813;DHT22;16707;48.106;11.548;2024-01-06T01:42:20;6.20;99.90
29813;DHT22;16707;48.106;11.548;2024-01-06T01:44:47;6.20;99.90
29813;DHT22;16707;48.106;11.548;2024-01-06T01:47:14;6.30;99.90
29813;DHT22;16707;48.106;11.548;2024-01-06T01:49:44;6.30;99.90
29813;DHT22;16707;48.106;11.548;2024-01-06T01:52:11;6.20;99.90
29813;DHT22;16707;48.106;11.548;2024-01-06T01:54:39;6.20;99.90
29813;DHT22;16707;48.106;11.548;2024-01-06T01:57:06;6.10;99.90
29813;DHT22;16707;48.106;11.548;2024-01-06T01:59:33;6.10;99.90
29813;DHT22;16707;48.106;11.548;2024-01-06T02:02:00;6.10;99.90
29813;DHT22;16707;48.106;11.548;2024-01-06T02:04:27;6.10;99.90
29813;DHT22;16707;48.106;11.548;2024-01-06T02:06:54;6.00;99.90
29813;DHT22;16707;48.106;11.548;2024-01-06T02:09:21;6.10;99.90
29813;DHT22;16707;48.106;11.548;2024-01-06T02:11:49;6.00;99.90
29813;DHT22;16707;48.106;11.548;2024-01-06T02:14:16;6.10;99.90
29813;DHT22;16707;48.106;11.548;2024-01-06T02:16:43;6.10;99.90
29813;DHT22;16707;48.106;11.548;2024-01-06T02:19:10;6.10;99.90
29813;DHT22;16707;48.106;11.548;2024-01-06T02:21:38;6.10;99.90
29813;DHT22;16707;48.106;11.548;2024-01-06T02:24:09;6.10;99.90
29813;DHT22;16707;48.106;11.548;2024-01-06T02:26:35;6.10;99.90
29813;DHT22;16707;48.106;11.548;2024-01-06T02:29:02;6.10;99.90
29813;DHT22;16707;48.106;11.548;2024-01-06T02:31:29;6.00;99.90
29813;DHT22;16707;48.106;11.548;2024-01-06T02:33:55;6.00;99.90
29813;DHT22;16707;48.106;11.548;2024-01-06T02:36:22;6.00;99.90
29813;DHT22;16707;48.106;11.548;2024-01-06T02:38:49;6.10;99.90
29813;DHT22;16707;48.106;11.548;2024-01-06T02:41:17;6.10;99.90
29813;DHT22;16707;48.106;11.548;2024-01-06T02:43:44;6.10;99.90
29813;DHT22;16707;48.106;11.548;2024-01-06T02:46:10;6.00;99.90
29813;DHT22;16707;48.106;11.548;2024-01-06T02:48:37;6.00;99.90
29813;DHT22;16707;48.106;11.548;2024-01-06T02:51:04;6.00;99.90
29813;DHT22;16707;48.106;11.548;2024-01-06T02:53:31;6.00;99.90
29813;DHT22;16707;48.106;11.548;2024-01-06T02:55:57;6.00;99.90
29813;DHT22;16707;48.106;11.548;2024-01-06T02:58:25;6.00;99.90
29813;DHT22;16707;48.106;11.548;2024-01-06T03:00:52;6.10;99.90
29813;DHT22;16707;48.106;11.548;2024-01-06T03:03:19;6.10;99.90
29813;DHT22;16707;48.106;11.548;2024-01-06T03:05:46;6.10;99.90
29813;DHT22;16707;48.106;11.548;2024-01-06T03:08:14;6.10;99.90
29813;DHT22;16707;48.106;11.548;2024-01-06T03:10:41;6.10;99.90
29813;DHT22;16707;48.106;11.548;2024-01-06T03:13:08;6.10;99.90
29813;DHT22;16707;48.106;11.548;2024-01-06T03:15:36;6.10;99.90
29813;DHT22;16707;48.106;11.548;2024-01-06T03:18:02;6.10;99.90
29813;DHT22;16707;48.106;11.548;2024-01-06T03:20:29;6.10;99.90
29813;DHT22;16707;48.106;11.548;2024-01-06T03:22:56;6.10;99.90
29813;DHT22;16707;48.106;11.548;2024-01-06T03:25:23;6.00;99.90
29813;DHT22;16707;48.106;11.548;2024-01-06T03:27:49;6.10;99.90
29813;DHT22;16707;48.106;11.548;2024-01-06T03:30:16;6.30;99.90
29813;DHT22;16707;48.106;11.548;2024-01-06T03:32:44;6.20;99.90
29813;DHT22;16707;48.106;11.548;2024-01-06T03:35:11;6.20;99.90
29813;DHT22;16707;48.106;11.548;2024-01-06T03:37:37;6.10;99.90
29813;DHT22;16707;48.106;11.548;2024-01-06T03:40:05;6.00;99.90
29813;DHT22;16707;48.106;11.548;2024-01-06T03:42:31;6.10;99.90
29813;DHT22;16707;48.106;11.548;2024-01-06T03:44:58;6.00;99.90
29813;DHT22;16707;48.106;11.548;2024-01-06T03:47:25;6.10;99.90
29813;DHT22;16707;48.106;11.548;2024-01-06T03:49:53;6.10;99.90
29813;DHT22;16707;48.106;11.548;2024-01-06T03:52:20;6.10;99.90
29813;DHT22;16707;48.106;11.548;2024-01-06T03:54:47;6.10;99.90
29813;DHT22;16707;48.106;11.548;2024-01-06T03:57:14;6.10;99.90
29813;DHT22;16707;48.106;11.548;2024-01-06T03:59:41;6.00;99.90
29813;DHT22;16707;48.106;11.548;2024-01-06T04:02:08;6.00;99.90
29813;DHT22;16707;48.106;11.548;2024-01-06T04:04:34;6.00;99.90
29813;DHT22;16707;48.106;11.548;2024-01-06T04:07:03;6.00;99.90
29813;DHT22;16707;48.106;11.548;2024-01-06T04:09:30;6.00;99.90
29813;DHT22;16707;48.106;11.548;2024-01-06T04:11:57;6.10;99.90
29813;DHT22;16707;48.106;11.548;2024-01-06T04:14:26;6.10;99.90
29813;DHT22;16707;48.106;11.548;2024-01-06T04:16:52;6.00;99.90
29813;DHT22;16707;48.106;11.548;2024-01-06T04:19:21;6.00;99.90
29813;DHT22;16707;48.106;11.548;2024-01-06T04:21:47;5.80;99.90
29813;DHT22;16707;48.106;11.548;2024-01-06T04:24:15;5.80;99.90
29813;DHT22;16707;48.106;11.548;2024-01-06T04:26:42;5.80;99.90
29813;DHT22;16707;48.106;11.548;2024-01-06T04:29:10;5.80;99.90
29813;DHT22;16707;48.106;11.548;2024-01-06T04:31:37;5.80;99.90
29813;DHT22;16707;48.106;11.548;2024-01-06T04:34:04;5.80;99.90
29813;DHT22;16707;48.106;11.548;2024-01-06T04:36:30;5.80;99.90
29813;DHT22;16707;48.106;11.548;2024-01-06T04:38:57;5.90;99.90
29813;DHT22;16707;48.106;11.548;2024-01-06T04:41:25;6.00;99.90
29813;DHT22;16707;48.106;11.548;2024-01-06T04:43:52;5.90;99.90
29813;DHT22;16707;48.106;11.548;2024-01-06T04:46:19;5.90;99.90
29813;DHT22;16707;48.106;11.548;2024-01-06T04:48:45;5.90;99.90
29813;DHT22;16707;48.106;11.548;2024-01-06T04:51:12;5.90;99.90
29813;DHT22;16707;48.106;11.548;2024-01-06T04:53:39;5.90;99.90
29813;DHT22;16707;48.106;11.548;2024-01-06T04:56:06;5.80;99.90
29813;DHT22;16707;48.106;11.548;2024-01-06T04:58:34;5.80;99.90
29813;DHT22;16707;48.106;11.548;2024-01-06T05:01:01;5.80;99.90
29813;DHT22;16707;48.106;11.548;2024-01-06T05:03:28;5.80;99.90
29813;DHT22;16707;48.106;11.548;2024-01-06T05:05:55;5.80;99.90
29813;DHT22;16707;48.106;11.548;2024-01-06T05:08:21;5.80;99.90
29813;DHT22;16707;48.106;11.548;2024-01-06T05:10:51;5.70;99.90
29813;DHT22;16707;48.106;11.548;2024-01-06T05:13:18;5.80;99.90
29813;DHT22;16707;48.106;11.548;2024-01-06T05:15:46;5.80;99.90
29813;DHT22;16707;48.106;11.548;2024-01-06T05:18:13;5.80;99.90
29813;DHT22;16707;48.106;11.548;2024-01-06T05:20:40;5.80;99.90
29813;DHT22;16707;48.106;11.548;2024-01-06T05:23:07;5.60;99.90
29813;DHT22;16707;48.106;11.548;2024-01-06T05:25:34;5.60;99.90
29813;DHT22;16707;48.106;11.548;2024-01-06T05:28:00;5.50;99.90
29813;DHT22;16707;48.106;11.548;2024-01-06T05:30:27;5.50;99.90
29813;DHT22;16707;48.106;11.548;2024-01-06T05:32:55;5.40;99.90
29813;DHT22;16707;48.106;11.548;2024-01-06T05:35:22;5.40;99.90
29813;DHT22;16707;48.106;11.548;2024-01-06T05:37:49;5.40;99.90
29813;DHT22;16707;48.106;11.548;2024-01-06T05:40:15;5.40;99.90
29813;DHT22;16707;48.106;11.548;2024-01-06T05:42:42;5.40;99.90
29813;DHT22;16707;48.106;11.548;2024-01-06T05:45:10;5.40;99.90
29813;DHT22;16707;48.106;11.548;2024-01-06T05:47:37;5.30;99.90
29813;DHT22;16707;48.106;11.548;2024-01-06T05:50:06;5.30;99.90
29813;DHT22;16707;48.106;11.548;2024-01-06T05:52:34;5.30;99.90
29813;DHT22;16707;48.106;11.548;2024-01-06T05:55:01;5.20;99.90
29813;DHT22;16707;48.106;11.548;2024-01-06T05:57:28;5.20;99.90
29813;DHT22;16707;48.106;11.548;2024-01-06T05:59:54;5.20;99.90
29813;DHT22;16707;48.106;11.548;2024-01-06T06:02:21;5.20;99.90
29813;DHT22;16707;48.106;11.548;2024-01-06T06:04:48;5.10;99.90
29813;DHT22;16707;48.106;11.548;2024-01-06T06:07:16;5.20;99.90
29813;DHT22;16707;48.106;11.548;2024-01-06T06:09:43;5.30;99.90
29813;DHT22;16707;48.106;11.548;2024-01-06T06:12:12;5.40;99.90
29813;DHT22;16707;48.106;11.548;2024-01-06T06:14:39;5.30;99.90
29813;DHT22;16707;48.106;11.548;2024-01-06T06:17:07;5.20;99.90
29813;DHT22;16707;48.106;11.548;2024-01-06T06:19:33;5.30;99.90
29813;DHT22;16707;48.106;11.548;2024-01-06T06:22:00;5.30;99.90
29813;DHT22;16707;48.106;11.548;2024-01-06T06:24:28;5.20;99.90
29813;DHT22;16707;48.106;11.548;2024-01-06T06:26:55;5.20;99.90
29813;DHT22;16707;48.106;11.548;2024-01-06T06:29:22;5.20;99.90
29813;DHT22;16707;48.106;11.548;2024-01-06T06:31:49;5.20;99.90
29813;DHT22;16707;48.106;11.548;2024-01-06T06:34:16;5.10;99.90
29813;DHT22;16707;48.106;11.548;2024-01-06T06:36:42;5.20;99.90
29813;DHT22;16707;48.106;11.548;2024-01-06T06:39:09;5.20;99.90
29813;DHT22;16707;48.106;11.548;2024-01-06T06:41:37;5.10;99.90
29813;DHT22;16707;48.106;11.548;2024-01-06T06:44:04;5.10;99.90
29813;DHT22;16707;48.106;11.548;2024-01-06T06:46:31;5.10;99.90
29813;DHT22;16707;48.106;11.548;2024-01-06T06:48:57;5.10;99.90
29813;DHT22;16707;48.106;11.548;2024-01-06T06:51:24;5.10;99.90
29813;DHT22;16707;48.106;11.548;2024-01-06T06:53:52;5.20;99.90
29813;DHT22;16707;48.106;11.548;2024-01-06T06:56:19;5.10;99.90
29813;DHT22;16707;48.106;11.548;2024-01-06T06:58:47;5.10;99.90
29813;DHT22;16707;48.106;11.548;2024-01-06T07:01:14;5.00;99.90
29813;DHT22;16707;48.106;11.548;2024-01-06T07:03:40;5.00;99.90
29813;DHT22;16707;48.106;11.548;2024-01-06T07:06:07;5.00;99.90
29813;DHT22;16707;48.106;11.548;2024-01-06T07:08:34;5.10;99.90
29813;DHT22;16707;48.106;11.548;2024-01-06T07:11:00;5.00;99.90
29813;DHT22;16707;48.106;11.548;2024-01-06T07:13:27;4.90;99.90
29813;DHT22;16707;48.106;11.548;2024-01-06T07:15:55;4.90;99.90
29813;DHT22;16707;48.106;11.548;2024-01-06T07:18:22;4.90;99.90
29813;DHT22;16707;48.106;11.548;2024-01-06T07:20:50;4.80;99.90
29813;DHT22;16707;48.106;11.548;2024-01-06T07:23:17;4.70;99.90
29813;DHT22;16707;48.106;11.548;2024-01-06T07:25:43;4.70;99.90
29813;DHT22;16707;48.106;11.548;2024-01-06T07:28:10;4.70;99.90
29813;DHT22;16707;48.106;11.548;2024-01-06T07:30:37;4.70;99.90
29813;DHT22;16707;48.106;11.548;2024-01-06T07:33:05;4.80;99.90
29813;DHT22;16707;48.106;11.548;2024-01-06T07:35:32;4.90;99.90
29813;DHT22;16707;48.106;11.548;2024-01-06T07:37:59;4.90;99.90
29813;DHT22;16707;48.106;11.548;2024-01-06T07:40:25;4.90;99.90
29813;DHT22;16707;48.106;11.548;2024-01-06T07:42:52;5.10;99.90
29813;DHT22;16707;48.106;11.548;2024-01-06T07:45:19;5.10;99.90
29813;DHT22;16707;48.106;11.548;2024-01-06T07:47:45;5.00;99.90
29813;DHT22;16707;48.106;11.548;2024-01-06T07:50:13;5.00;99.90
29813;DHT22;16707;48.106;11.548;2024-01-06T07:52:40;5.10;99.90
29813;DHT22;16707;48.106;11.548;2024-01-06T07:55:07;5.20;99.90
29813;DHT22;16707;48.106;11.548;2024-01-06T07:57:34;5.20;99.90
29813;DHT22;16707;48.106;11.548;2024-01-06T08:00:01;5.40;99.90
29813;DHT22;16707;48.106;11.548;2024-01-06T08:02:28;5.50;99.90
29813;DHT22;16707;48.106;11.548;2024-01-06T08:04:55;5.50;99.90
29813;DHT22;16707;48.106;11.548;2024-01-06T08:07:23;5.50;99.90
29813;DHT22;16707;48.106;11.548;2024-01-06T08:09:50;5.40;99.90
29813;DHT22;16707;48.106;11.548;2024-01-06T08:12:17;5.40;99.90
29813;DHT22;16707;48.106;11.548;2024-01-06T08:14:43;5.40;99.90
29813;DHT22;16707;48.106;11.548;2024-01-06T08:17:10;5.30;99.90
29813;DHT22;16707;48.106;11.548;2024-01-06T08:19:37;5.40;99.90
29813;DHT22;16707;48.106;11.548;2024-01-06T08:22:04;5.50;99.90
29813;DHT22;16707;48.106;11.548;2024-01-06T08:24:32;5.60;99.90
29813;DHT22;16707;48.106;11.548;2024-01-06T08:26:58;5.50;99.90
29813;DHT22;16707;48.106;11.548;2024-01-06T08:29:25;5.50;99.90
29813;DHT22;16707;48.106;11.548;2024-01-06T08:31:52;5.60;99.90
29813;DHT22;16707;48.106;11.548;2024-01-06T08:34:20;5.60;99.90
29813;DHT22;16707;48.106;11.548;2024-01-06T08:36:46;5.50;99.90
29813;DHT22;16707;48.106;11.548;2024-01-06T08:39:13;5.40;99.90
29813;DHT22;16707;48.106;11.548;2024-01-06T08:41:41;5.50;99.90
29813;DHT22;16707;48.106;11.548;2024-01-06T08:44:08;5.60;99.90
29813;DHT22;16707;48.106;11.548;2024-01-06T08:46:35;5.60;99.90
29813;DHT22;16707;48.106;11.548;2024-01-06T08:49:01;5.60;99.90
29813;DHT22;16707;48.106;11.548;2024-01-06T08:51:28;5.60;99.90
29813;DHT22;16707;48.106;11.548;2024-01-06T08:53:56;5.60;99.90
29813;DHT22;16707;48.106;11.548;2024-01-06T08:56:23;5.60;99.90
29813;DHT22;16707;48.106;11.548;2024-01-06T08:58:51;5.60;99.90
29813;DHT22;16707;48.106;11.548;2024-01-06T09:01:17;5.50;99.90
29813;DHT22;16707;48.106;11.548;2024-01-06T09:03:44;5.50;99.90
29813;DHT22;16707;48.106;11.548;2024-01-06T09:06:11;5.60;99.90
29813;DHT22;16707;48.106;11.548;2024-01-06T09:08:38;5.60;99.90
29813;DHT22;16707;48.106;11.548;2024-01-06T09:11:04;5.60;99.90
29813;DHT22;16707;48.106;11.548;2024-01-06T09:13:31;5.60;99.90
29813;DHT22;16707;48.106;11.548;2024-01-06T09:15:59;5.60;99.90
29813;DHT22;16707;48.106;11.548;2024-01-06T09:18:26;5.60;99.90
29813;DHT22;16707;48.106;11.548;2024-01-06T09:20:53;5.60;99.90
29813;DHT22;16707;48.106;11.548;2024-01-06T09:23:20;5.70;99.90
29813;DHT22;16707;48.106;11.548;2024-01-06T09:25:47;5.80;99.90
29813;DHT22;16707;48.106;11.548;2024-01-06T09:28:15;5.70;99.90
29813;DHT22;16707;48.106;11.548;2024-01-06T09:30:41;5.70;99.90
29813;DHT22;16707;48.106;11.548;2024-01-06T09:33:09;5.80;99.90
29813;DHT22;16707;48.106;11.548;2024-01-06T09:35:40;5.80;99.90
29813;DHT22;16707;48.106;11.548;2024-01-06T09:38:07;5.80;99.90
29813;DHT22;16707;48.106;11.548;2024-01-06T09:40:34;5.70;99.90
29813;DHT22;16707;48.106;11.548;2024-01-06T09:43:01;5.90;99.90
29813;DHT22;16707;48.106;11.548;2024-01-06T09:45:28;5.90;99.90
29813;DHT22;16707;48.106;11.548;2024-01-06T09:47:55;5.90;99.90
29813;DHT22;16707;48.106;11.548;2024-01-06T09:50:23;6.00;99.90
29813;DHT22;16707;48.106;11.548;2024-01-06T09:52:51;6.10;99.90
29813;DHT22;16707;48.106;11.548;2024-01-06T09:55:22;6.00;99.90
29813;DHT22;16707;48.106;11.548;2024-01-06T09:57:49;5.90;99.90
29813;DHT22;16707;48.106;11.548;2024-01-06T10:00:16;5.90;99.90
29813;DHT22;16707;48.106;11.548;2024-01-06T10:02:44;6.00;99.90
29813;DHT22;16707;48.106;11.548;2024-01-06T10:05:12;6.00;99.90
29813;DHT22;16707;48.106;11.548;2024-01-06T10:07:42;6.00;99.90
29813;DHT22;16707;48.106;11.548;2024-01-06T10:10:10;6.10;99.90
29813;DHT22;16707;48.106;11.548;2024-01-06T10:12:37;6.00;99.90
29813;DHT22;16707;48.106;11.548;2024-01-06T10:15:04;6.00;99.90
29813;DHT22;16707;48.106;11.548;2024-01-06T10:17:31;5.90;99.90
29813;DHT22;16707;48.106;11.548;2024-01-06T10:19:59;6.00;99.90
29813;DHT22;16707;48.106;11.548;2024-01-06T10:22:25;6.00;99.90
29813;DHT22;16707;48.106;11.548;2024-01-06T10:24:54;6.10;99.90
29813;DHT22;16707;48.106;11.548;2024-01-06T10:27:21;6.10;99.90
29813;DHT22;16707;48.106;11.548;2024-01-06T10:29:48;6.10;99.90
29813;DHT22;16707;48.106;11.548;2024-01-06T10:32:15;6.10;99.90
29813;DHT22;16707;48.106;11.548;2024-01-06T10:34:42;6.10;99.90
29813;DHT22;16707;48.106;11.548;2024-01-06T10:37:09;5.90;99.90
29813;DHT22;16707;48.106;11.548;2024-01-06T10:39:37;5.80;99.90
29813;DHT22;16707;48.106;11.548;2024-01-06T10:42:05;5.80;99.90
29813;DHT22;16707;48.106;11.548;2024-01-06T10:44:32;5.90;99.90
29813;DHT22;16707;48.106;11.548;2024-01-06T10:47:00;5.90;99.90
29813;DHT22;16707;48.106;11.548;2024-01-06T10:49:27;6.00;99.90
29813;DHT22;16707;48.106;11.548;2024-01-06T10:51:55;6.00;99.90
29813;DHT22;16707;48.106;11.548;2024-01-06T10:54:23;6.00;99.90
29813;DHT22;16707;48.106;11.548;2024-01-06T10:56:51;6.00;99.90
29813;DHT22;16707;48.106;11.548;2024-01-06T10:59:19;6.10;99.90
29813;DHT22;16707;48.106;11.548;2024-01-06T11:01:48;6.00;99.90
29813;DHT22;16707;48.106;11.548;2024-01-06T11:04:15;6.10;99.90
29813;DHT22;16707;48.106;11.548;2024-01-06T11:06:42;6.10;99.90
29813;DHT22;16707;48.106;11.548;2024-01-06T11:09:11;6.10;99.90
29813;DHT22;16707;48.106;11.548;2024-01-06T11:11:42;6.10;99.90
29813;DHT22;16707;48.106;11.548;2024-01-06T11:14:20;6.20;99.90
29813;DHT22;16707;48.106;11.548;2024-01-06T11:16:47;6.30;99.90
29813;DHT22;16707;48.106;11.548;2024-01-06T11:22:12;6.20;99.90
29813;DHT22;16707;48.106;11.548;2024-01-06T11:24:46;6.30;99.90
29813;DHT22;16707;48.106;11.548;2024-01-06T11:27:16;6.20;99.90
29813;DHT22;16707;48.106;11.548;2024-01-06T11:29:45;6.30;99.90
29813;DHT22;16707;48.106;11.548;2024-01-06T11:32:19;6.40;99.90
29813;DHT22;16707;48.106;11.548;2024-01-06T11:34:49;6.60;99.90
29813;DHT22;16707;48.106;11.548;2024-01-06T11:37:20;6.50;99.90
29813;DHT22;16707;48.106;11.548;2024-01-06T11:39:48;6.50;99.90
29813;DHT22;16707;48.106;11.548;2024-01-06T11:42:16;6.50;99.90
29813;DHT22;16707;48.106;11.548;2024-01-06T11:44:43;6.40;99.90
29813;DHT22;16707;48.106;11.548;2024-01-06T11:47:12;6.20;99.90
29813;DHT22;16707;48.106;11.548;2024-01-06T11:49:40;6.20;99.90
29813;DHT22;16707;48.106;11.548;2024-01-06T11:52:10;6.30;99.90
29813;DHT22;16707;48.106;11.548;2024-01-06T11:54:38;6.30;99.90
29813;DHT22;16707;48.106;11.548;2024-01-06T11:57:04;6.30;99.90
29813;DHT22;16707;48.106;11.548;2024-01-06T11:59:31;6.30;99.90
29813;DHT22;16707;48.106;11.548;2024-01-06T12:01:58;6.30;99.90
29813;DHT22;16707;48.106;11.548;2024-01-06T12:04:26;6.30;99.90
29813;DHT22;16707;48.106;11.548;2024-01-06T12:07:04;6.20;99.90
29813;DHT22;16707;48.106;11.548;2024-01-06T12:09:31;6.30;99.90
29813;DHT22;16707;48.106;11.548;2024-01-06T12:12:00;6.20;99.90
29813;DHT22;16707;48.106;11.548;2024-01-06T12:14:27;6.20;99.90
29813;DHT22;16707;48.106;11.548;2024-01-06T12:16:54;6.10;99.90
29813;DHT22;16707;48.106;11.548;2024-01-06T12:19:27;6.10;99.90
29813;DHT22;16707;48.106;11.548;2024-01-06T12:21:54;6.20;99.90
29813;DHT22;16707;48.106;11.548;2024-01-06T12:24:22;6.20;99.90
29813;DHT22;16707;48.106;11.548;2024-01-06T12:26:48;6.30;99.90
29813;DHT22;16707;48.106;11.548;2024-01-06T12:29:16;6.20;99.90
29813;DHT22;16707;48.106;11.548;2024-01-06T12:31:43;6.20;99.90
29813;DHT22;16707;48.106;11.548;2024-01-06T12:34:10;6.10;99.90
29813;DHT22;16707;48.106;11.548;2024-01-06T12:36:39;6.10;99.90
29813;DHT22;16707;48.106;11.548;2024-01-06T12:39:10;6.10;99.90
29813;DHT22;16707;48.106;11.548;2024-01-06T12:41:38;6.00;99.90
29813;DHT22;16707;48.106;11.548;2024-01-06T12:44:05;5.90;99.90
29813;DHT22;16707;48.106;11.548;2024-01-06T12:46:32;5.90;99.90
29813;DHT22;16707;48.106;11.548;2024-01-06T12:48:59;5.80;99.90
29813;DHT22;16707;48.106;11.548;2024-01-06T12:51:26;5.70;99.90
29813;DHT22;16707;48.106;11.548;2024-01-06T12:53:54;5.60;99.90
29813;DHT22;16707;48.106;11.548;2024-01-06T12:56:20;5.40;99.90
29813;DHT22;16707;48.106;11.548;2024-01-06T12:58:47;5.40;99.90
29813;DHT22;16707;48.106;11.548;2024-01-06T13:01:14;5.30;99.90
29813;DHT22;16707;48.106;11.548;2024-01-06T13:03:41;5.30;99.90
29813;DHT22;16707;48.106;11.548;2024-01-06T13:06:08;5.20;99.90
29813;DHT22;16707;48.106;11.548;2024-01-06T13:08:35;5.20;99.90
29813;DHT22;16707;48.106;11.548;2024-01-06T13:11:03;5.30;99.90
29813;DHT22;16707;48.106;11.548;2024-01-06T13:13:30;5.20;99.90
29813;DHT22;16707;48.106;11.548;2024-01-06T13:15:57;5.20;99.90
29813;DHT22;16707;48.106;11.548;2024-01-06T13:18:24;5.20;99.90
29813;DHT22;16707;48.106;11.548;2024-01-06T13:20:51;5.20;99.90
29813;DHT22;16707;48.106;11.548;2024-01-06T13:23:18;5.10;99.90
29813;DHT22;16707;48.106;11.548;2024-01-06T13:25:45;5.00;99.90
29813;DHT22;16707;48.106;11.548;2024-01-06T13:28:13;5.10;99.90
29813;DHT22;16707;48.106;11.548;2024-01-06T13:30:40;5.10;99.90
29813;DHT22;16707;48.106;11.548;2024-01-06T13:33:07;4.90;99.90
29813;DHT22;16707;48.106;11.548;2024-01-06T13:35:34;4.80;99.90
29813;DHT22;16707;48.106;11.548;2024-01-06T13:38:02;4.60;99.90
29813;DHT22;16707;48.106;11.548;2024-01-06T13:40:29;4.60;99.90
29813;DHT22;16707;48.106;11.548;2024-01-06T13:42:57;4.50;99.90
29813;DHT22;16707;48.106;11.548;2024-01-06T13:45:25;4.50;99.90
29813;DHT22;16707;48.106;11.548;2024-01-06T13:47:52;4.50;99.90
29813;DHT22;16707;48.106;11.548;2024-01-06T13:50:19;4.50;99.90
29813;DHT22;16707;48.106;11.548;2024-01-06T13:52:45;4.60;99.90
29813;DHT22;16707;48.106;11.548;2024-01-06T13:55:13;4.70;99.90
29813;DHT22;16707;48.106;11.548;2024-01-06T13:57:40;4.70;99.90
29813;DHT22;16707;48.106;11.548;2024-01-06T14:00:08;4.70;99.90
29813;DHT22;16707;48.106;11.548;2024-01-06T14:02:37;4.70;99.90
29813;DHT22;16707;48.106;11.548;2024-01-06T14:05:04;4.70;99.90
29813;DHT22;16707;48.106;11.548;2024-01-06T14:07:33;4.70;99.90
29813;DHT22;16707;48.106;11.548;2024-01-06T14:10:00;4.70;99.90
29813;DHT22;16707;48.106;11.548;2024-01-06T14:12:28;4.60;99.90
29813;DHT22;16707;48.106;11.548;2024-01-06T14:14:56;4.60;99.90
29813;DHT22;16707;48.106;11.548;2024-01-06T14:17:22;4.60;99.90
29813;DHT22;16707;48.106;11.548;2024-01-06T14:19:50;4.50;99.90
29813;DHT22;16707;48.106;11.548;2024-01-06T14:22:17;4.60;99.90
29813;DHT22;16707;48.106;11.548;2024-01-06T14:24:44;4.60;99.90
29813;DHT22;16707;48.106;11.548;2024-01-06T14:27:11;4.60;99.90
29813;DHT22;16707;48.106;11.548;2024-01-06T14:29:37;4.60;99.90
29813;DHT22;16707;48.106;11.548;2024-01-06T14:32:04;4.50;99.90
29813;DHT22;16707;48.106;11.548;2024-01-06T14:34:31;4.50;99.90
29813;DHT22;16707;48.106;11.548;2024-01-06T14:37:00;4.60;99.90
29813;DHT22;16707;48.106;11.548;2024-01-06T14:39:27;4.60;99.90
29813;DHT22;16707;48.106;11.548;2024-01-06T14:41:54;4.50;99.90
29813;DHT22;16707;48.106;11.548;2024-01-06T14:44:20;4.50;99.90
29813;DHT22;16707;48.106;11.548;2024-01-06T14:46:47;4.50;99.90
29813;DHT22;16707;48.106;11.548;2024-01-06T14:49:15;4.50;99.90
29813;DHT22;16707;48.106;11.548;2024-01-06T14:51:42;4.50;99.90
29813;DHT22;16707;48.106;11.548;2024-01-06T14:54:12;4.40;99.90
29813;DHT22;16707;48.106;11.548;2024-01-06T14:56:39;4.40;99.90
29813;DHT22;16707;48.106;11.548;2024-01-06T14:59:06;4.40;99.90
29813;DHT22;16707;48.106;11.548;2024-01-06T15:01:33;4.30;99.90
29813;DHT22;16707;48.106;11.548;2024-01-06T15:03:59;4.20;99.90
29813;DHT22;16707;48.106;11.548;2024-01-06T15:06:26;4.10;99.90
29813;DHT22;16707;48.106;11.548;2024-01-06T15:08:53;4.20;99.90
29813;DHT22;16707;48.106;11.548;2024-01-06T15:11:21;4.20;99.90
29813;DHT22;16707;48.106;11.548;2024-01-06T15:13:48;4.20;99.90
29813;DHT22;16707;48.106;11.548;2024-01-06T15:16:14;4.20;99.90
29813;DHT22;16707;48.106;11.548;2024-01-06T15:18:41;4.00;99.90
29813;DHT22;16707;48.106;11.548;2024-01-06T15:21:08;4.10;99.90
29813;DHT22;16707;48.106;11.548;2024-01-06T15:23:34;4.00;99.90
29813;DHT22;16707;48.106;11.548;2024-01-06T15:26:01;4.00;99.90
29813;DHT22;16707;48.106;11.548;2024-01-06T15:28:30;4.00;99.90
29813;DHT22;16707;48.106;11.548;2024-01-06T15:30:57;4.00;99.90
29813;DHT22;16707;48.106;11.548;2024-01-06T15:33:25;3.90;99.90